sensor_id;sensor_type;location;lat;lon;timestamp;P1;durP1;ratioP1;P2;durP2;ratioP2
36411;SDS011;22445;52.100;5.176;2023-08-21T00:00:53;5.85;;;1.85;;
36411;SDS011;22445;52.100;5.176;2023-08-21T00:03:18;5.78;;;1.67;;
36411;SDS011;22445;52.100;5.176;2023-08-21T00:05:44;6.20;;;1.95;;
36411;SDS011;22445;52.100;5.176;2023-08-21T00:08:09;8.73;;;1.90;;
36411;SDS011;22445;52.100;5.176;2023-08-21T00:10:38;4.10;;;2.00;;
36411;SDS011;22445;52.100;5.176;2023-08-21T00:13:04;6.03;;;1.70;;
36411;SDS011;22445;52.100;5.176;2023-08-21T00:15:30;4.65;;;1.70;;
36411;SDS011;22445;52.100;5.176;2023-08-21T00:17:56;3.35;;;2.20;;
36411;SDS011;22445;52.100;5.176;2023-08-21T00:20:21;2.35;;;1.92;;
36411;SDS011;22445;52.100;5.176;2023-08-21T00:22:47;3.63;;;1.65;;
36411;SDS011;22445;52.100;5.176;2023-08-21T00:25:12;5.40;;;2.20;;
36411;SDS011;22445;52.100;5.176;2023-08-21T00:27:38;4.55;;;1.95;;
36411;SDS011;22445;52.100;5.176;2023-08-21T00:30:04;4.43;;;2.13;;
36411;SDS011;22445;52.100;5.176;2023-08-21T00:32:30;4.85;;;1.90;;
36411;SDS011;22445;52.100;5.176;2023-08-21T00:34:55;4.35;;;2.08;;
36411;SDS011;22445;52.100;5.176;2023-08-21T00:37:21;5.32;;;2.08;;
36411;SDS011;22445;52.100;5.176;2023-08-21T00:39:46;2.42;;;1.67;;
36411;SDS011;22445;52.100;5.176;2023-08-21T00:42:12;5.68;;;2.13;;
36411;SDS011;22445;52.100;5.176;2023-08-21T00:44:38;3.65;;;1.77;;
36411;SDS011;22445;52.100;5.176;2023-08-21T00:47:03;2.72;;;1.50;;
36411;SDS011;22445;52.100;5.176;2023-08-21T00:49:29;6.72;;;1.83;;
36411;SDS011;22445;52.100;5.176;2023-08-21T00:51:55;3.05;;;1.67;;
36411;SDS011;22445;52.100;5.176;2023-08-21T00:54:21;4.38;;;1.58;;
36411;SDS011;22445;52.100;5.176;2023-08-21T00:56:46;3.63;;;1.80;;
36411;SDS011;22445;52.100;5.176;2023-08-21T00:59:12;5.00;;;1.70;;
36411;SDS011;22445;52.100;5.176;2023-08-21T01:01:38;4.05;;;1.45;;
36411;SDS011;22445;52.100;5.176;2023-08-21T01:04:03;2.15;;;1.23;;
36411;SDS011;22445;52.100;5.176;2023-08-21T01:06:29;2.92;;;1.63;;
36411;SDS011;22445;52.100;5.176;2023-08-21T01:12:01;2.58;;;1.23;;
36411;SDS011;22445;52.100;5.176;2023-08-21T01:14:42;1.90;;;1.40;;
36411;SDS011;22445;52.100;5.176;2023-08-21T01:17:29;5.70;;;1.85;;
36411;SDS011;22445;52.100;5.176;2023-08-21T01:19:55;6.75;;;1.85;;
36411;SDS011;22445;52.100;5.176;2023-08-21T01:22:25;3.50;;;2.05;;
36411;SDS011;22445;52.100;5.176;2023-08-21T01:25:11;2.17;;;0.50;;
36411;SDS011;22445;52.100;5.176;2023-08-21T01:27:38;0.77;;;0.40;;
36411;SDS011;22445;52.100;5.176;2023-08-21T01:30:07;2.30;;;1.40;;
36411;SDS011;22445;52.100;5.176;2023-08-21T01:35:20;2.35;;;1.45;;
36411;SDS011;22445;52.100;5.176;2023-08-21T01:37:46;3.60;;;1.70;;
36411;SDS011;22445;52.100;5.176;2023-08-21T01:40:12;5.07;;;1.67;;
36411;SDS011;22445;52.100;5.176;2023-08-21T01:42:37;3.72;;;1.60;;
36411;SDS011;22445;52.100;5.176;2023-08-21T01:45:03;3.83;;;1.42;;
36411;SDS011;22445;52.100;5.176;2023-08-21T01:47:29;4.70;;;1.90;;
36411;SDS011;22445;52.100;5.176;2023-08-21T01:49:55;3.90;;;1.90;;
36411;SDS011;22445;52.100;5.176;2023-08-21T01:52:20;2.50;;;1.70;;
36411;SDS011;22445;52.100;5.176;2023-08-21T01:54:47;4.47;;;1.85;;
36411;SDS011;22445;52.100;5.176;2023-08-21T01:57:14;5.85;;;1.98;;
36411;SDS011;22445;52.100;5.176;2023-08-21T01:59:39;3.58;;;1.80;;
36411;SDS011;22445;52.100;5.176;2023-08-21T02:02:05;3.92;;;2.08;;
36411;SDS011;22445;52.100;5.176;2023-08-21T02:04:31;1.85;;;1.27;;
36411;SDS011;22445;52.100;5.176;2023-08-21T02:06:56;2.05;;;1.40;;
36411;SDS011;22445;52.100;5.176;2023-08-21T02:09:22;3.72;;;1.88;;
36411;SDS011;22445;52.100;5.176;2023-08-21T02:11:48;4.78;;;1.88;;
36411;SDS011;22445;52.100;5.176;2023-08-21T02:14:13;3.15;;;1.40;;
36411;SDS011;22445;52.100;5.176;2023-08-21T02:16:39;3.50;;;1.80;;
36411;SDS011;22445;52.100;5.176;2023-08-21T02:19:04;4.55;;;1.67;;
36411;SDS011;22445;52.100;5.176;2023-08-21T02:21:31;3.33;;;1.55;;
36411;SDS011;22445;52.100;5.176;2023-08-21T02:23:56;4.50;;;1.98;;
36411;SDS011;22445;52.100;5.176;2023-08-21T02:26:22;4.40;;;1.92;;
36411;SDS011;22445;52.100;5.176;2023-08-21T02:28:48;3.83;;;1.83;;
36411;SDS011;22445;52.100;5.176;2023-08-21T02:31:13;4.97;;;2.08;;
36411;SDS011;22445;52.100;5.176;2023-08-21T02:33:39;3.60;;;1.73;;
36411;SDS011;22445;52.100;5.176;2023-08-21T02:36:04;3.40;;;1.92;;
36411;SDS011;22445;52.100;5.176;2023-08-21T02:38:32;2.78;;;1.60;;
36411;SDS011;22445;52.100;5.176;2023-08-21T02:40:57;2.28;;;1.63;;
36411;SDS011;22445;52.100;5.176;2023-08-21T02:43:23;2.70;;;1.45;;
36411;SDS011;22445;52.100;5.176;2023-08-21T02:45:48;1.58;;;0.52;;
36411;SDS011;22445;52.100;5.176;2023-08-21T02:48:14;23.70;;;2.08;;
36411;SDS011;22445;52.100;5.176;2023-08-21T02:50:40;3.35;;;1.70;;
36411;SDS011;22445;52.100;5.176;2023-08-21T02:53:06;4.15;;;1.75;;
36411;SDS011;22445;52.100;5.176;2023-08-21T02:55:32;3.75;;;1.70;;
36411;SDS011;22445;52.100;5.176;2023-08-21T02:57:58;4.43;;;2.40;;
36411;SDS011;22445;52.100;5.176;2023-08-21T03:00:23;7.28;;;1.83;;
36411;SDS011;22445;52.100;5.176;2023-08-21T03:02:49;4.28;;;1.98;;
36411;SDS011;22445;52.100;5.176;2023-08-21T03:05:15;2.72;;;2.20;;
36411;SDS011;22445;52.100;5.176;2023-08-21T03:07:41;3.10;;;1.80;;
36411;SDS011;22445;52.100;5.176;2023-08-21T03:10:07;4.45;;;1.90;;
36411;SDS011;22445;52.100;5.176;2023-08-21T03:12:33;2.90;;;1.77;;
36411;SDS011;22445;52.100;5.176;2023-08-21T03:14:58;2.47;;;1.73;;
36411;SDS011;22445;52.100;5.176;2023-08-21T03:17:24;2.90;;;1.90;;
36411;SDS011;22445;52.100;5.176;2023-08-21T03:19:50;3.90;;;1.73;;
36411;SDS011;22445;52.100;5.176;2023-08-21T03:22:16;4.45;;;1.70;;
36411;SDS011;22445;52.100;5.176;2023-08-21T03:24:41;4.50;;;1.90;;
36411;SDS011;22445;52.100;5.176;2023-08-21T03:27:07;4.88;;;1.70;;
36411;SDS011;22445;52.100;5.176;2023-08-21T03:29:33;3.22;;;1.65;;
36411;SDS011;22445;52.100;5.176;2023-08-21T03:31:58;2.08;;;1.60;;
36411;SDS011;22445;52.100;5.176;2023-08-21T03:34:24;2.78;;;1.73;;
36411;SDS011;22445;52.100;5.176;2023-08-21T03:36:49;3.35;;;1.75;;
36411;SDS011;22445;52.100;5.176;2023-08-21T03:39:15;6.55;;;2.00;;
36411;SDS011;22445;52.100;5.176;2023-08-21T03:41:41;5.30;;;2.10;;
36411;SDS011;22445;52.100;5.176;2023-08-21T03:44:06;4.20;;;1.60;;
36411;SDS011;22445;52.100;5.176;2023-08-21T03:46:32;3.03;;;1.67;;
36411;SDS011;22445;52.100;5.176;2023-08-21T03:48:57;4.80;;;1.92;;
36411;SDS011;22445;52.100;5.176;2023-08-21T03:51:23;5.43;;;2.25;;
36411;SDS011;22445;52.100;5.176;2023-08-21T03:53:49;5.38;;;1.75;;
36411;SDS011;22445;52.100;5.176;2023-08-21T03:56:15;4.00;;;2.40;;
36411;SDS011;22445;52.100;5.176;2023-08-21T03:58:40;3.08;;;1.98;;
36411;SDS011;22445;52.100;5.176;2023-08-21T04:01:06;4.03;;;1.65;;
36411;SDS011;22445;52.100;5.176;2023-08-21T04:03:32;4.30;;;2.13;;
36411;SDS011;22445;52.100;5.176;2023-08-21T04:05:58;6.97;;;2.53;;
36411;SDS011;22445;52.100;5.176;2023-08-21T04:08:24;6.50;;;2.53;;
36411;SDS011;22445;52.100;5.176;2023-08-21T04:10:50;4.13;;;2.03;;
36411;SDS011;22445;52.100;5.176;2023-08-21T04:13:17;4.25;;;2.33;;
36411;SDS011;22445;52.100;5.176;2023-08-21T04:15:47;4.05;;;2.00;;
36411;SDS011;22445;52.100;5.176;2023-08-21T04:18:13;6.25;;;2.30;;
36411;SDS011;22445;52.100;5.176;2023-08-21T04:20:39;6.53;;;2.50;;
36411;SDS011;22445;52.100;5.176;2023-08-21T04:23:04;3.25;;;1.65;;
36411;SDS011;22445;52.100;5.176;2023-08-21T04:25:30;3.75;;;1.85;;
36411;SDS011;22445;52.100;5.176;2023-08-21T04:27:56;6.03;;;1.90;;
36411;SDS011;22445;52.100;5.176;2023-08-21T04:30:21;3.70;;;1.85;;
36411;SDS011;22445;52.100;5.176;2023-08-21T04:32:47;2.75;;;1.58;;
36411;SDS011;22445;52.100;5.176;2023-08-21T04:35:13;2.10;;;1.70;;
36411;SDS011;22445;52.100;5.176;2023-08-21T04:37:42;2.38;;;2.03;;
36411;SDS011;22445;52.100;5.176;2023-08-21T04:40:10;5.35;;;2.22;;
36411;SDS011;22445;52.100;5.176;2023-08-21T04:42:36;4.50;;;2.10;;
36411;SDS011;22445;52.100;5.176;2023-08-21T04:45:02;5.50;;;2.50;;
36411;SDS011;22445;52.100;5.176;2023-08-21T04:47:29;4.90;;;2.15;;
36411;SDS011;22445;52.100;5.176;2023-08-21T04:49:55;9.05;;;2.33;;
36411;SDS011;22445;52.100;5.176;2023-08-21T04:52:21;3.72;;;2.08;;
36411;SDS011;22445;52.100;5.176;2023-08-21T04:54:48;4.22;;;1.83;;
36411;SDS011;22445;52.100;5.176;2023-08-21T04:57:14;6.07;;;2.90;;
36411;SDS011;22445;52.100;5.176;2023-08-21T04:59:40;4.15;;;2.28;;
36411;SDS011;22445;52.100;5.176;2023-08-21T05:02:06;4.57;;;2.40;;
36411;SDS011;22445;52.100;5.176;2023-08-21T05:04:32;4.82;;;2.70;;
36411;SDS011;22445;52.100;5.176;2023-08-21T05:06:58;3.75;;;2.88;;
36411;SDS011;22445;52.100;5.176;2023-08-21T05:09:23;5.72;;;2.20;;
36411;SDS011;22445;52.100;5.176;2023-08-21T05:11:49;3.08;;;2.25;;
36411;SDS011;22445;52.100;5.176;2023-08-21T05:14:14;2.63;;;2.42;;
36411;SDS011;22445;52.100;5.176;2023-08-21T05:16:40;4.43;;;1.98;;
36411;SDS011;22445;52.100;5.176;2023-08-21T05:19:06;5.07;;;2.63;;
36411;SDS011;22445;52.100;5.176;2023-08-21T05:21:32;5.93;;;2.33;;
36411;SDS011;22445;52.100;5.176;2023-08-21T05:23:57;4.50;;;2.25;;
36411;SDS011;22445;52.100;5.176;2023-08-21T05:26:23;2.10;;;1.58;;
36411;SDS011;22445;52.100;5.176;2023-08-21T05:28:49;2.13;;;1.30;;
36411;SDS011;22445;52.100;5.176;2023-08-21T05:31:14;4.03;;;2.00;;
36411;SDS011;22445;52.100;5.176;2023-08-21T05:33:40;6.03;;;2.45;;
36411;SDS011;22445;52.100;5.176;2023-08-21T05:36:05;5.82;;;2.40;;
36411;SDS011;22445;52.100;5.176;2023-08-21T05:38:31;6.30;;;2.45;;
36411;SDS011;22445;52.100;5.176;2023-08-21T05:40:57;6.32;;;2.20;;
36411;SDS011;22445;52.100;5.176;2023-08-21T05:43:23;4.47;;;2.03;;
36411;SDS011;22445;52.100;5.176;2023-08-21T05:45:49;3.08;;;2.08;;
36411;SDS011;22445;52.100;5.176;2023-08-21T05:48:15;5.05;;;2.15;;
36411;SDS011;22445;52.100;5.176;2023-08-21T05:50:42;3.97;;;2.33;;
36411;SDS011;22445;52.100;5.176;2023-08-21T05:53:08;4.32;;;2.55;;
36411;SDS011;22445;52.100;5.176;2023-08-21T05:55:36;3.85;;;2.28;;
36411;SDS011;22445;52.100;5.176;2023-08-21T05:58:02;6.30;;;2.22;;
36411;SDS011;22445;52.100;5.176;2023-08-21T06:00:28;4.88;;;2.45;;
36411;SDS011;22445;52.100;5.176;2023-08-21T06:02:53;6.35;;;2.97;;
36411;SDS011;22445;52.100;5.176;2023-08-21T06:05:19;6.28;;;2.72;;
36411;SDS011;22445;52.100;5.176;2023-08-21T06:07:45;4.70;;;2.35;;
36411;SDS011;22445;52.100;5.176;2023-08-21T06:10:11;3.67;;;2.35;;
36411;SDS011;22445;52.100;5.176;2023-08-21T06:12:38;4.72;;;2.13;;
36411;SDS011;22445;52.100;5.176;2023-08-21T06:15:05;2.83;;;1.52;;
36411;SDS011;22445;52.100;5.176;2023-08-21T06:17:33;3.03;;;1.80;;
36411;SDS011;22445;52.100;5.176;2023-08-21T06:19:59;7.05;;;2.42;;
36411;SDS011;22445;52.100;5.176;2023-08-21T06:22:25;3.33;;;1.88;;
36411;SDS011;22445;52.100;5.176;2023-08-21T06:24:50;4.15;;;2.28;;
36411;SDS011;22445;52.100;5.176;2023-08-21T06:27:16;2.75;;;1.90;;
36411;SDS011;22445;52.100;5.176;2023-08-21T06:29:42;4.03;;;2.22;;
36411;SDS011;22445;52.100;5.176;2023-08-21T06:32:08;3.70;;;2.15;;
36411;SDS011;22445;52.100;5.176;2023-08-21T06:34:33;5.95;;;2.38;;
36411;SDS011;22445;52.100;5.176;2023-08-21T06:36:59;5.43;;;2.47;;
36411;SDS011;22445;52.100;5.176;2023-08-21T06:39:25;4.55;;;2.47;;
36411;SDS011;22445;52.100;5.176;2023-08-21T06:41:51;5.28;;;2.50;;
36411;SDS011;22445;52.100;5.176;2023-08-21T06:44:17;4.63;;;2.45;;
36411;SDS011;22445;52.100;5.176;2023-08-21T06:46:42;5.47;;;2.50;;
36411;SDS011;22445;52.100;5.176;2023-08-21T06:49:08;5.72;;;2.30;;
36411;SDS011;22445;52.100;5.176;2023-08-21T06:51:34;6.60;;;2.45;;
36411;SDS011;22445;52.100;5.176;2023-08-21T06:54:00;2.42;;;1.98;;
36411;SDS011;22445;52.100;5.176;2023-08-21T06:56:25;5.88;;;2.20;;
36411;SDS011;22445;52.100;5.176;2023-08-21T06:58:51;4.10;;;2.22;;
36411;SDS011;22445;52.100;5.176;2023-08-21T07:01:17;4.65;;;1.65;;
36411;SDS011;22445;52.100;5.176;2023-08-21T07:03:43;5.95;;;2.25;;
36411;SDS011;22445;52.100;5.176;2023-08-21T07:06:08;4.30;;;1.58;;
36411;SDS011;22445;52.100;5.176;2023-08-21T07:08:34;6.47;;;2.30;;
36411;SDS011;22445;52.100;5.176;2023-08-21T07:11:01;7.15;;;2.10;;
36411;SDS011;22445;52.100;5.176;2023-08-21T07:13:29;4.68;;;2.45;;
36411;SDS011;22445;52.100;5.176;2023-08-21T07:15:54;5.20;;;2.20;;
36411;SDS011;22445;52.100;5.176;2023-08-21T07:18:20;3.60;;;1.48;;
36411;SDS011;22445;52.100;5.176;2023-08-21T07:20:46;4.82;;;2.05;;
36411;SDS011;22445;52.100;5.176;2023-08-21T07:23:11;5.03;;;1.75;;
36411;SDS011;22445;52.100;5.176;2023-08-21T07:25:37;4.20;;;2.05;;
36411;SDS011;22445;52.100;5.176;2023-08-21T07:28:03;4.45;;;1.70;;
36411;SDS011;22445;52.100;5.176;2023-08-21T07:30:29;3.78;;;1.30;;
36411;SDS011;22445;52.100;5.176;2023-08-21T07:32:56;4.35;;;1.60;;
36411;SDS011;22445;52.100;5.176;2023-08-21T07:35:21;4.60;;;1.52;;
36411;SDS011;22445;52.100;5.176;2023-08-21T07:37:47;3.60;;;0.90;;
36411;SDS011;22445;52.100;5.176;2023-08-21T07:40:12;4.75;;;1.20;;
36411;SDS011;22445;52.100;5.176;2023-08-21T07:42:38;3.42;;;0.93;;
36411;SDS011;22445;52.100;5.176;2023-08-21T07:45:04;3.47;;;1.30;;
36411;SDS011;22445;52.100;5.176;2023-08-21T07:47:30;8.50;;;1.38;;
36411;SDS011;22445;52.100;5.176;2023-08-21T07:49:56;4.32;;;0.98;;
36411;SDS011;22445;52.100;5.176;2023-08-21T07:52:22;7.05;;;1.20;;
36411;SDS011;22445;52.100;5.176;2023-08-21T07:54:51;6.22;;;1.45;;
36411;SDS011;22445;52.100;5.176;2023-08-21T07:57:18;4.35;;;0.95;;
36411;SDS011;22445;52.100;5.176;2023-08-21T07:59:43;3.88;;;1.00;;
36411;SDS011;22445;52.100;5.176;2023-08-21T08:02:09;3.75;;;1.25;;
36411;SDS011;22445;52.100;5.176;2023-08-21T08:04:37;3.75;;;1.20;;
36411;SDS011;22445;52.100;5.176;2023-08-21T08:07:03;4.55;;;1.10;;
36411;SDS011;22445;52.100;5.176;2023-08-21T08:09:29;3.40;;;1.27;;
36411;SDS011;22445;52.100;5.176;2023-08-21T08:11:55;6.20;;;1.50;;
36411;SDS011;22445;52.100;5.176;2023-08-21T08:14:21;4.63;;;1.20;;
36411;SDS011;22445;52.100;5.176;2023-08-21T08:16:46;3.40;;;0.98;;
36411;SDS011;22445;52.100;5.176;2023-08-21T08:19:12;3.38;;;1.05;;
36411;SDS011;22445;52.100;5.176;2023-08-21T08:21:38;7.20;;;1.38;;
36411;SDS011;22445;52.100;5.176;2023-08-21T08:24:03;4.47;;;0.70;;
36411;SDS011;22445;52.100;5.176;2023-08-21T08:26:29;4.95;;;1.33;;
36411;SDS011;22445;52.100;5.176;2023-08-21T08:28:55;3.97;;;1.63;;
36411;SDS011;22445;52.100;5.176;2023-08-21T08:31:20;4.60;;;0.90;;
36411;SDS011;22445;52.100;5.176;2023-08-21T08:33:46;5.07;;;1.10;;
36411;SDS011;22445;52.100;5.176;2023-08-21T08:36:13;7.68;;;1.55;;
36411;SDS011;22445;52.100;5.176;2023-08-21T08:38:39;6.57;;;1.42;;
36411;SDS011;22445;52.100;5.176;2023-08-21T08:41:10;4.65;;;1.13;;
36411;SDS011;22445;52.100;5.176;2023-08-21T08:43:40;3.70;;;1.10;;
36411;SDS011;22445;52.100;5.176;2023-08-21T08:46:07;6.15;;;1.70;;
36411;SDS011;22445;52.100;5.176;2023-08-21T08:48:35;6.72;;;1.40;;
36411;SDS011;22445;52.100;5.176;2023-08-21T08:51:01;4.18;;;0.85;;
36411;SDS011;22445;52.100;5.176;2023-08-21T08:53:31;3.75;;;1.30;;
36411;SDS011;22445;52.100;5.176;2023-08-21T08:55:58;5.70;;;1.25;;
36411;SDS011;22445;52.100;5.176;2023-08-21T08:58:23;5.05;;;1.58;;
36411;SDS011;22445;52.100;5.176;2023-08-21T09:00:49;4.47;;;1.20;;
36411;SDS011;22445;52.100;5.176;2023-08-21T09:03:15;4.18;;;1.60;;
36411;SDS011;22445;52.100;5.176;2023-08-21T09:05:41;7.57;;;1.60;;
36411;SDS011;22445;52.100;5.176;2023-08-21T09:10:56;6.50;;;2.17;;
36411;SDS011;22445;52.100;5.176;2023-08-21T09:13:27;4.15;;;1.80;;
36411;SDS011;22445;52.100;5.176;2023-08-21T09:15:53;3.55;;;1.38;;
36411;SDS011;22445;52.100;5.176;2023-08-21T09:18:19;5.07;;;1.85;;
36411;SDS011;22445;52.100;5.176;2023-08-21T09:20:45;3.85;;;1.52;;
36411;SDS011;22445;52.100;5.176;2023-08-21T09:23:14;2.97;;;1.25;;
36411;SDS011;22445;52.100;5.176;2023-08-21T09:25:40;4.35;;;1.50;;
36411;SDS011;22445;52.100;5.176;2023-08-21T09:28:08;4.85;;;1.50;;
36411;SDS011;22445;52.100;5.176;2023-08-21T09:33:22;3.97;;;1.33;;
36411;SDS011;22445;52.100;5.176;2023-08-21T09:35:49;4.65;;;1.20;;
36411;SDS011;22445;52.100;5.176;2023-08-21T09:38:17;5.05;;;1.50;;
36411;SDS011;22445;52.100;5.176;2023-08-21T09:40:53;2.78;;;1.10;;
36411;SDS011;22445;52.100;5.176;2023-08-21T09:43:19;4.55;;;1.58;;
36411;SDS011;22445;52.100;5.176;2023-08-21T09:45:47;4.53;;;1.52;;
36411;SDS011;22445;52.100;5.176;2023-08-21T09:48:13;4.35;;;1.60;;
36411;SDS011;22445;52.100;5.176;2023-08-21T09:50:39;4.80;;;1.55;;
36411;SDS011;22445;52.100;5.176;2023-08-21T09:53:08;4.28;;;1.67;;
36411;SDS011;22445;52.100;5.176;2023-08-21T09:55:33;4.32;;;1.33;;
36411;SDS011;22445;52.100;5.176;2023-08-21T09:58:00;2.78;;;1.10;;
36411;SDS011;22445;52.100;5.176;2023-08-21T10:00:30;1.95;;;0.93;;
36411;SDS011;22445;52.100;5.176;2023-08-21T10:03:01;2.58;;;0.98;;
36411;SDS011;22445;52.100;5.176;2023-08-21T10:05:31;2.92;;;1.00;;
36411;SDS011;22445;52.100;5.176;2023-08-21T10:07:59;2.80;;;1.00;;
36411;SDS011;22445;52.100;5.176;2023-08-21T10:10:28;2.50;;;1.00;;
36411;SDS011;22445;52.100;5.176;2023-08-21T10:12:57;2.08;;;0.90;;
36411;SDS011;22445;52.100;5.176;2023-08-21T10:15:23;5.68;;;1.10;;
36411;SDS011;22445;52.100;5.176;2023-08-21T10:17:49;4.80;;;1.48;;
36411;SDS011;22445;52.100;5.176;2023-08-21T10:20:15;4.72;;;1.20;;
36411;SDS011;22445;52.100;5.176;2023-08-21T10:22:51;2.50;;;1.10;;
36411;SDS011;22445;52.100;5.176;2023-08-21T10:25:22;2.13;;;1.00;;
36411;SDS011;22445;52.100;5.176;2023-08-21T10:27:55;6.20;;;1.05;;
36411;SDS011;22445;52.100;5.176;2023-08-21T10:30:25;3.70;;;1.20;;
36411;SDS011;22445;52.100;5.176;2023-08-21T10:32:52;4.22;;;1.23;;
36411;SDS011;22445;52.100;5.176;2023-08-21T10:35:20;4.07;;;1.10;;
36411;SDS011;22445;52.100;5.176;2023-08-21T10:40:39;3.05;;;0.98;;
36411;SDS011;22445;52.100;5.176;2023-08-21T10:43:36;1.77;;;1.02;;
36411;SDS011;22445;52.100;5.176;2023-08-21T10:46:09;3.65;;;1.20;;
36411;SDS011;22445;52.100;5.176;2023-08-21T10:48:38;2.40;;;0.70;;
36411;SDS011;22445;52.100;5.176;2023-08-21T10:51:05;1.55;;;0.70;;
36411;SDS011;22445;52.100;5.176;2023-08-21T10:53:38;3.42;;;1.10;;
36411;SDS011;22445;52.100;5.176;2023-08-21T10:56:05;3.13;;;1.30;;
36411;SDS011;22445;52.100;5.176;2023-08-21T10:58:35;2.70;;;0.82;;
36411;SDS011;22445;52.100;5.176;2023-08-21T11:01:04;2.53;;;0.77;;
36411;SDS011;22445;52.100;5.176;2023-08-21T11:03:30;3.10;;;0.70;;
36411;SDS011;22445;52.100;5.176;2023-08-21T11:06:02;3.83;;;1.00;;
36411;SDS011;22445;52.100;5.176;2023-08-21T11:08:28;4.43;;;0.85;;
36411;SDS011;22445;52.100;5.176;2023-08-21T11:10:54;2.80;;;0.82;;
36411;SDS011;22445;52.100;5.176;2023-08-21T11:13:22;2.35;;;0.80;;
36411;SDS011;22445;52.100;5.176;2023-08-21T11:15:48;3.65;;;0.90;;
36411;SDS011;22445;52.100;5.176;2023-08-21T11:18:14;3.55;;;0.88;;
36411;SDS011;22445;52.100;5.176;2023-08-21T11:20:40;2.78;;;0.80;;
36411;SDS011;22445;52.100;5.176;2023-08-21T11:23:06;1.92;;;0.98;;
36411;SDS011;22445;52.100;5.176;2023-08-21T11:25:38;6.53;;;1.75;;
36411;SDS011;22445;52.100;5.176;2023-08-21T11:28:05;19.30;;;3.40;;
36411;SDS011;22445;52.100;5.176;2023-08-21T11:30:31;5.38;;;1.27;;
36411;SDS011;22445;52.100;5.176;2023-08-21T11:33:04;1.80;;;0.80;;
36411;SDS011;22445;52.100;5.176;2023-08-21T11:35:31;5.70;;;1.30;;
36411;SDS011;22445;52.100;5.176;2023-08-21T11:37:56;3.50;;;1.30;;
36411;SDS011;22445;52.100;5.176;2023-08-21T11:40:22;2.42;;;0.80;;
36411;SDS011;22445;52.100;5.176;2023-08-21T11:42:51;4.82;;;0.90;;
36411;SDS011;22445;52.100;5.176;2023-08-21T11:45:16;4.28;;;1.00;;
36411;SDS011;22445;52.100;5.176;2023-08-21T11:47:45;4.22;;;1.15;;
36411;SDS011;22445;52.100;5.176;2023-08-21T11:50:11;2.33;;;0.75;;
36411;SDS011;22445;52.100;5.176;2023-08-21T11:52:38;2.72;;;0.75;;
36411;SDS011;22445;52.100;5.176;2023-08-21T11:55:07;2.88;;;0.90;;
36411;SDS011;22445;52.100;5.176;2023-08-21T11:57:34;2.03;;;0.60;;
36411;SDS011;22445;52.100;5.176;2023-08-21T12:00:00;3.05;;;0.90;;
36411;SDS011;22445;52.100;5.176;2023-08-21T12:02:26;6.00;;;1.30;;
36411;SDS011;22445;52.100;5.176;2023-08-21T12:04:53;2.65;;;1.15;;
36411;SDS011;22445;52.100;5.176;2023-08-21T12:07:37;3.42;;;1.02;;
36411;SDS011;22445;52.100;5.176;2023-08-21T12:10:03;2.08;;;1.27;;
36411;SDS011;22445;52.100;5.176;2023-08-21T12:12:28;3.63;;;1.00;;
36411;SDS011;22445;52.100;5.176;2023-08-21T12:14:54;2.17;;;0.70;;
36411;SDS011;22445;52.100;5.176;2023-08-21T12:17:19;4.03;;;1.10;;
36411;SDS011;22445;52.100;5.176;2023-08-21T12:19:45;14.85;;;3.83;;
36411;SDS011;22445;52.100;5.176;2023-08-21T12:22:11;2.25;;;0.60;;
36411;SDS011;22445;52.100;5.176;2023-08-21T12:24:37;2.35;;;0.70;;
36411;SDS011;22445;52.100;5.176;2023-08-21T12:27:03;3.10;;;0.70;;
36411;SDS011;22445;52.100;5.176;2023-08-21T12:29:29;3.22;;;0.82;;
36411;SDS011;22445;52.100;5.176;2023-08-21T12:31:55;3.53;;;0.80;;
36411;SDS011;22445;52.100;5.176;2023-08-21T12:34:20;1.52;;;0.60;;
36411;SDS011;22445;52.100;5.176;2023-08-21T12:36:46;3.25;;;0.60;;
36411;SDS011;22445;52.100;5.176;2023-08-21T12:39:12;3.08;;;0.60;;
36411;SDS011;22445;52.100;5.176;2023-08-21T12:41:39;0.82;;;0.40;;
36411;SDS011;22445;52.100;5.176;2023-08-21T12:44:04;1.73;;;0.57;;
36411;SDS011;22445;52.100;5.176;2023-08-21T12:46:34;3.58;;;0.47;;
36411;SDS011;22445;52.100;5.176;2023-08-21T12:49:00;2.42;;;0.65;;
36411;SDS011;22445;52.100;5.176;2023-08-21T12:51:26;3.25;;;0.57;;
36411;SDS011;22445;52.100;5.176;2023-08-21T12:53:53;4.20;;;0.50;;
36411;SDS011;22445;52.100;5.176;2023-08-21T12:56:18;2.42;;;0.47;;
36411;SDS011;22445;52.100;5.176;2023-08-21T12:58:45;1.23;;;0.52;;
36411;SDS011;22445;52.100;5.176;2023-08-21T13:01:11;3.53;;;0.90;;
36411;SDS011;22445;52.100;5.176;2023-08-21T13:03:37;2.45;;;0.75;;
36411;SDS011;22445;52.100;5.176;2023-08-21T13:06:03;3.38;;;0.90;;
36411;SDS011;22445;52.100;5.176;2023-08-21T13:08:29;1.73;;;0.95;;
36411;SDS011;22445;52.100;5.176;2023-08-21T13:10:55;3.63;;;0.60;;
36411;SDS011;22445;52.100;5.176;2023-08-21T13:13:21;1.15;;;0.60;;
36411;SDS011;22445;52.100;5.176;2023-08-21T13:15:46;1.85;;;0.60;;
36411;SDS011;22445;52.100;5.176;2023-08-21T13:18:12;2.13;;;0.85;;
36411;SDS011;22445;52.100;5.176;2023-08-21T13:20:42;4.50;;;1.20;;
36411;SDS011;22445;52.100;5.176;2023-08-21T13:23:08;2.67;;;0.82;;
36411;SDS011;22445;52.100;5.176;2023-08-21T13:25:33;2.45;;;0.70;;
36411;SDS011;22445;52.100;5.176;2023-08-21T13:28:00;1.58;;;0.60;;
36411;SDS011;22445;52.100;5.176;2023-08-21T13:30:26;1.95;;;0.95;;
36411;SDS011;22445;52.100;5.176;2023-08-21T13:32:51;3.17;;;0.47;;
36411;SDS011;22445;52.100;5.176;2023-08-21T13:35:17;1.55;;;0.85;;
36411;SDS011;22445;52.100;5.176;2023-08-21T13:37:44;4.65;;;1.00;;
36411;SDS011;22445;52.100;5.176;2023-08-21T13:40:10;1.75;;;0.80;;
36411;SDS011;22445;52.100;5.176;2023-08-21T13:42:39;3.03;;;1.08;;
36411;SDS011;22445;52.100;5.176;2023-08-21T13:45:09;1.73;;;0.75;;
36411;SDS011;22445;52.100;5.176;2023-08-21T13:47:39;4.85;;;0.90;;
36411;SDS011;22445;52.100;5.176;2023-08-21T13:50:06;2.55;;;0.63;;
36411;SDS011;22445;52.100;5.176;2023-08-21T13:52:32;3.05;;;0.68;;
36411;SDS011;22445;52.100;5.176;2023-08-21T13:54:59;3.20;;;1.38;;
36411;SDS011;22445;52.100;5.176;2023-08-21T13:57:25;3.00;;;1.40;;
36411;SDS011;22445;52.100;5.176;2023-08-21T13:59:50;1.88;;;0.98;;
36411;SDS011;22445;52.100;5.176;2023-08-21T14:02:16;2.88;;;1.50;;
36411;SDS011;22445;52.100;5.176;2023-08-21T14:04:43;3.83;;;1.95;;
36411;SDS011;22445;52.100;5.176;2023-08-21T14:07:10;3.40;;;1.10;;
36411;SDS011;22445;52.100;5.176;2023-08-21T14:09:37;2.90;;;0.85;;
36411;SDS011;22445;52.100;5.176;2023-08-21T14:12:03;4.00;;;1.20;;
36411;SDS011;22445;52.100;5.176;2023-08-21T14:14:29;4.15;;;0.85;;
36411;SDS011;22445;52.100;5.176;2023-08-21T14:16:55;1.48;;;0.80;;
36411;SDS011;22445;52.100;5.176;2023-08-21T14:19:21;2.33;;;0.80;;
36411;SDS011;22445;52.100;5.176;2023-08-21T14:21:46;3.42;;;1.05;;
36411;SDS011;22445;52.100;5.176;2023-08-21T14:24:12;2.15;;;0.77;;
36411;SDS011;22445;52.100;5.176;2023-08-21T14:26:37;2.38;;;0.70;;
36411;SDS011;22445;52.100;5.176;2023-08-21T14:29:05;2.58;;;0.80;;
36411;SDS011;22445;52.100;5.176;2023-08-21T14:31:31;3.08;;;0.73;;
36411;SDS011;22445;52.100;5.176;2023-08-21T14:33:56;3.30;;;0.65;;
36411;SDS011;22445;52.100;5.176;2023-08-21T14:36:24;2.55;;;0.80;;
36411;SDS011;22445;52.100;5.176;2023-08-21T14:38:49;1.52;;;0.40;;
36411;SDS011;22445;52.100;5.176;2023-08-21T14:41:16;3.20;;;0.75;;
36411;SDS011;22445;52.100;5.176;2023-08-21T14:43:42;1.05;;;0.50;;
36411;SDS011;22445;52.100;5.176;2023-08-21T14:46:09;1.73;;;0.73;;
36411;SDS011;22445;52.100;5.176;2023-08-21T14:48:35;4.10;;;1.65;;
36411;SDS011;22445;52.100;5.176;2023-08-21T14:51:01;1.83;;;0.82;;
36411;SDS011;22445;52.100;5.176;2023-08-21T14:53:26;3.58;;;1.08;;
36411;SDS011;22445;52.100;5.176;2023-08-21T14:55:52;1.70;;;0.75;;
36411;SDS011;22445;52.100;5.176;2023-08-21T14:58:17;3.40;;;0.90;;